sensor_id;sensor_type;location;lat;lon;timestamp;P1;durP1;ratioP1;P2;durP2;ratioP2
18190;SDS011;47004;51.366;12.348;2023-01-08T00:01:57;8.50;;;5.60;;
18190;SDS011;47004;51.366;12.348;2023-01-08T00:03:59;7.53;;;4.87;;
18190;SDS011;47004;51.366;12.348;2023-01-08T00:06:03;7.37;;;4.33;;
18190;SDS011;47004;51.366;12.348;2023-01-08T00:08:07;7.33;;;4.90;;
18190;SDS011;47004;51.366;12.348;2023-01-08T00:10:09;7.50;;;4.70;;
18190;SDS011;47004;51.366;12.348;2023-01-08T00:12:11;7.93;;;4.53;;
18190;SDS011;47004;51.366;12.348;2023-01-08T00:14:13;8.30;;;5.27;;
18190;SDS011;47004;51.366;12.348;2023-01-08T00:16:16;8.57;;;5.10;;
18190;SDS011;47004;51.366;12.348;2023-01-08T00:18:19;7.90;;;4.50;;
18190;SDS011;47004;51.366;12.348;2023-01-08T00:20:21;7.63;;;4.90;;
18190;SDS011;47004;51.366;12.348;2023-01-08T00:22:24;8.67;;;5.03;;
18190;SDS011;47004;51.366;12.348;2023-01-08T00:24:26;6.97;;;4.77;;
18190;SDS011;47004;51.366;12.348;2023-01-08T00:26:28;7.00;;;4.63;;
18190;SDS011;47004;51.366;12.348;2023-01-08T00:28:30;7.83;;;5.50;;
18190;SDS011;47004;51.366;12.348;2023-01-08T00:30:32;6.40;;;4.70;;
18190;SDS011;47004;51.366;12.348;2023-01-08T00:32:34;8.77;;;5.00;;
18190;SDS011;47004;51.366;12.348;2023-01-08T00:34:36;6.93;;;4.90;;
18190;SDS011;47004;51.366;12.348;2023-01-08T00:36:38;7.30;;;5.00;;
18190;SDS011;47004;51.366;12.348;2023-01-08T00:38:41;6.10;;;4.90;;
18190;SDS011;47004;51.366;12.348;2023-01-08T00:40:44;6.73;;;4.73;;
18190;SDS011;47004;51.366;12.348;2023-01-08T00:42:48;7.93;;;5.07;;
18190;SDS011;47004;51.366;12.348;2023-01-08T00:44:50;7.47;;;4.57;;
18190;SDS011;47004;51.366;12.348;2023-01-08T00:46:52;6.47;;;4.47;;
18190;SDS011;47004;51.366;12.348;2023-01-08T00:48:54;6.73;;;4.50;;
18190;SDS011;47004;51.366;12.348;2023-01-08T00:50:56;7.63;;;5.53;;
18190;SDS011;47004;51.366;12.348;2023-01-08T00:52:58;7.07;;;5.07;;
18190;SDS011;47004;51.366;12.348;2023-01-08T00:55:01;7.93;;;5.37;;
18190;SDS011;47004;51.366;12.348;2023-01-08T00:57:03;8.87;;;5.60;;
18190;SDS011;47004;51.366;12.348;2023-01-08T00:59:05;7.83;;;5.37;;
18190;SDS011;47004;51.366;12.348;2023-01-08T01:01:10;9.60;;;5.13;;
18190;SDS011;47004;51.366;12.348;2023-01-08T01:03:13;8.33;;;4.97;;
18190;SDS011;47004;51.366;12.348;2023-01-08T01:05:15;8.40;;;5.23;;
18190;SDS011;47004;51.366;12.348;2023-01-08T01:07:18;9.97;;;5.03;;
18190;SDS011;47004;51.366;12.348;2023-01-08T01:09:20;7.87;;;5.10;;
18190;SDS011;47004;51.366;12.348;2023-01-08T01:11:23;7.10;;;4.90;;
18190;SDS011;47004;51.366;12.348;2023-01-08T01:13:29;7.43;;;4.93;;
18190;SDS011;47004;51.366;12.348;2023-01-08T01:15:31;7.30;;;4.83;;
18190;SDS011;47004;51.366;12.348;2023-01-08T01:17:37;6.90;;;4.80;;
18190;SDS011;47004;51.366;12.348;2023-01-08T01:19:40;6.13;;;4.43;;
18190;SDS011;47004;51.366;12.348;2023-01-08T01:21:42;6.80;;;4.50;;
18190;SDS011;47004;51.366;12.348;2023-01-08T01:23:44;6.93;;;4.50;;
18190;SDS011;47004;51.366;12.348;2023-01-08T01:25:46;7.50;;;4.90;;
18190;SDS011;47004;51.366;12.348;2023-01-08T01:27:49;6.80;;;4.43;;
18190;SDS011;47004;51.366;12.348;2023-01-08T01:29:53;6.70;;;4.60;;
18190;SDS011;47004;51.366;12.348;2023-01-08T01:31:55;7.17;;;4.90;;
18190;SDS011;47004;51.366;12.348;2023-01-08T01:33:57;9.97;;;5.20;;
18190;SDS011;47004;51.366;12.348;2023-01-08T01:36:00;7.47;;;4.60;;
18190;SDS011;47004;51.366;12.348;2023-01-08T01:38:03;7.67;;;4.37;;
18190;SDS011;47004;51.366;12.348;2023-01-08T01:40:05;6.83;;;4.33;;
18190;SDS011;47004;51.366;12.348;2023-01-08T01:42:10;8.30;;;4.90;;
18190;SDS011;47004;51.366;12.348;2023-01-08T01:44:40;7.10;;;4.90;;
18190;SDS011;47004;51.366;12.348;2023-01-08T01:46:43;8.17;;;4.67;;
18190;SDS011;47004;51.366;12.348;2023-01-08T01:48:47;6.67;;;4.60;;
18190;SDS011;47004;51.366;12.348;2023-01-08T01:50:51;7.43;;;4.80;;
18190;SDS011;47004;51.366;12.348;2023-01-08T01:52:56;7.00;;;5.00;;
18190;SDS011;47004;51.366;12.348;2023-01-08T01:55:01;6.60;;;4.23;;
18190;SDS011;47004;51.366;12.348;2023-01-08T01:57:05;7.47;;;4.70;;
18190;SDS011;47004;51.366;12.348;2023-01-08T01:59:08;7.40;;;4.60;;
18190;SDS011;47004;51.366;12.348;2023-01-08T02:01:12;7.53;;;4.90;;
18190;SDS011;47004;51.366;12.348;2023-01-08T02:03:15;7.67;;;4.60;;
18190;SDS011;47004;51.366;12.348;2023-01-08T02:05:21;7.33;;;4.67;;
18190;SDS011;47004;51.366;12.348;2023-01-08T02:07:29;9.83;;;4.47;;
18190;SDS011;47004;51.366;12.348;2023-01-08T02:09:41;7.40;;;4.97;;
18190;SDS011;47004;51.366;12.348;2023-01-08T02:11:46;6.70;;;4.10;;
18190;SDS011;47004;51.366;12.348;2023-01-08T02:14:13;7.80;;;4.30;;
18190;SDS011;47004;51.366;12.348;2023-01-08T02:16:24;8.40;;;4.50;;
18190;SDS011;47004;51.366;12.348;2023-01-08T02:18:32;6.80;;;4.60;;
18190;SDS011;47004;51.366;12.348;2023-01-08T02:20:41;6.90;;;4.30;;
18190;SDS011;47004;51.366;12.348;2023-01-08T02:22:51;7.83;;;4.83;;
18190;SDS011;47004;51.366;12.348;2023-01-08T02:25:12;8.07;;;4.57;;
18190;SDS011;47004;51.366;12.348;2023-01-08T02:27:23;6.63;;;4.43;;
18190;SDS011;47004;51.366;12.348;2023-01-08T02:29:28;7.37;;;4.90;;
18190;SDS011;47004;51.366;12.348;2023-01-08T02:31:33;6.47;;;4.60;;
18190;SDS011;47004;51.366;12.348;2023-01-08T02:33:37;7.87;;;4.60;;
18190;SDS011;47004;51.366;12.348;2023-01-08T02:35:41;5.90;;;4.27;;
18190;SDS011;47004;51.366;12.348;2023-01-08T02:37:46;8.07;;;4.60;;
18190;SDS011;47004;51.366;12.348;2023-01-08T02:39:51;6.57;;;4.73;;
18190;SDS011;47004;51.366;12.348;2023-01-08T02:42:05;7.30;;;4.50;;
18190;SDS011;47004;51.366;12.348;2023-01-08T02:44:14;6.23;;;4.10;;
18190;SDS011;47004;51.366;12.348;2023-01-08T02:46:21;6.10;;;4.17;;
18190;SDS011;47004;51.366;12.348;2023-01-08T02:48:32;5.77;;;3.73;;
18190;SDS011;47004;51.366;12.348;2023-01-08T02:50:39;6.80;;;4.13;;
18190;SDS011;47004;51.366;12.348;2023-01-08T02:52:47;6.70;;;4.10;;
18190;SDS011;47004;51.366;12.348;2023-01-08T02:54:54;6.33;;;4.10;;
18190;SDS011;47004;51.366;12.348;2023-01-08T02:56:58;6.30;;;4.17;;
18190;SDS011;47004;51.366;12.348;2023-01-08T02:59:02;6.67;;;4.30;;
18190;SDS011;47004;51.366;12.348;2023-01-08T03:01:09;7.47;;;4.40;;
18190;SDS011;47004;51.366;12.348;2023-01-08T03:03:13;6.20;;;4.23;;
18190;SDS011;47004;51.366;12.348;2023-01-08T03:05:20;6.13;;;3.70;;
18190;SDS011;47004;51.366;12.348;2023-01-08T03:07:25;7.50;;;4.47;;
18190;SDS011;47004;51.366;12.348;2023-01-08T03:09:27;5.37;;;3.63;;
18190;SDS011;47004;51.366;12.348;2023-01-08T03:11:30;5.03;;;3.80;;
18190;SDS011;47004;51.366;12.348;2023-01-08T03:13:37;5.73;;;3.60;;
18190;SDS011;47004;51.366;12.348;2023-01-08T03:15:45;6.57;;;3.63;;
18190;SDS011;47004;51.366;12.348;2023-01-08T03:17:51;5.53;;;3.60;;
18190;SDS011;47004;51.366;12.348;2023-01-08T03:19:58;6.03;;;3.93;;
18190;SDS011;47004;51.366;12.348;2023-01-08T03:22:02;4.87;;;3.23;;
18190;SDS011;47004;51.366;12.348;2023-01-08T03:24:08;4.90;;;3.67;;
18190;SDS011;47004;51.366;12.348;2023-01-08T03:26:16;4.03;;;3.13;;
18190;SDS011;47004;51.366;12.348;2023-01-08T03:28:22;6.23;;;3.60;;
18190;SDS011;47004;51.366;12.348;2023-01-08T03:30:29;5.20;;;3.27;;
18190;SDS011;47004;51.366;12.348;2023-01-08T03:32:32;4.50;;;3.17;;
18190;SDS011;47004;51.366;12.348;2023-01-08T03:34:37;5.07;;;3.20;;
18190;SDS011;47004;51.366;12.348;2023-01-08T03:36:42;5.27;;;3.23;;
18190;SDS011;47004;51.366;12.348;2023-01-08T03:38:47;5.20;;;3.20;;
18190;SDS011;47004;51.366;12.348;2023-01-08T03:40:55;5.17;;;3.30;;
18190;SDS011;47004;51.366;12.348;2023-01-08T03:43:00;5.17;;;3.47;;
18190;SDS011;47004;51.366;12.348;2023-01-08T03:45:02;3.97;;;3.00;;
18190;SDS011;47004;51.366;12.348;2023-01-08T03:47:05;5.40;;;3.37;;
18190;SDS011;47004;51.366;12.348;2023-01-08T03:49:10;5.57;;;3.23;;
18190;SDS011;47004;51.366;12.348;2023-01-08T03:51:14;5.70;;;3.33;;
18190;SDS011;47004;51.366;12.348;2023-01-08T03:53:17;5.67;;;3.10;;
18190;SDS011;47004;51.366;12.348;2023-01-08T03:55:19;5.77;;;2.97;;
18190;SDS011;47004;51.366;12.348;2023-01-08T03:57:27;7.83;;;3.33;;
18190;SDS011;47004;51.366;12.348;2023-01-08T03:59:29;3.13;;;2.43;;
18190;SDS011;47004;51.366;12.348;2023-01-08T04:01:31;4.40;;;2.87;;
18190;SDS011;47004;51.366;12.348;2023-01-08T04:03:33;4.23;;;2.73;;
18190;SDS011;47004;51.366;12.348;2023-01-08T04:05:35;4.00;;;2.70;;
18190;SDS011;47004;51.366;12.348;2023-01-08T04:07:41;3.97;;;2.77;;
18190;SDS011;47004;51.366;12.348;2023-01-08T04:09:43;5.07;;;3.00;;
18190;SDS011;47004;51.366;12.348;2023-01-08T04:11:46;4.10;;;2.43;;
18190;SDS011;47004;51.366;12.348;2023-01-08T04:13:48;4.53;;;2.77;;
18190;SDS011;47004;51.366;12.348;2023-01-08T04:15:50;4.20;;;3.20;;
18190;SDS011;47004;51.366;12.348;2023-01-08T04:17:52;4.30;;;2.67;;
18190;SDS011;47004;51.366;12.348;2023-01-08T04:19:54;4.50;;;2.70;;
18190;SDS011;47004;51.366;12.348;2023-01-08T04:21:56;4.77;;;2.83;;
18190;SDS011;47004;51.366;12.348;2023-01-08T04:23:59;4.07;;;2.60;;
18190;SDS011;47004;51.366;12.348;2023-01-08T04:26:02;4.33;;;2.70;;
18190;SDS011;47004;51.366;12.348;2023-01-08T04:28:05;4.20;;;2.90;;
18190;SDS011;47004;51.366;12.348;2023-01-08T04:30:07;4.00;;;2.90;;
18190;SDS011;47004;51.366;12.348;2023-01-08T04:32:10;4.93;;;3.00;;
18190;SDS011;47004;51.366;12.348;2023-01-08T04:34:12;4.50;;;3.07;;
18190;SDS011;47004;51.366;12.348;2023-01-08T04:36:14;3.70;;;2.70;;
18190;SDS011;47004;51.366;12.348;2023-01-08T04:38:16;4.50;;;3.07;;
18190;SDS011;47004;51.366;12.348;2023-01-08T04:40:20;4.80;;;2.90;;
18190;SDS011;47004;51.366;12.348;2023-01-08T04:42:22;5.57;;;2.97;;
18190;SDS011;47004;51.366;12.348;2023-01-08T04:44:24;5.27;;;2.40;;
18190;SDS011;47004;51.366;12.348;2023-01-08T04:46:26;3.83;;;2.60;;
18190;SDS011;47004;51.366;12.348;2023-01-08T04:48:29;3.33;;;2.37;;
18190;SDS011;47004;51.366;12.348;2023-01-08T04:50:31;6.40;;;2.97;;
18190;SDS011;47004;51.366;12.348;2023-01-08T04:52:33;5.43;;;3.20;;
18190;SDS011;47004;51.366;12.348;2023-01-08T04:54:35;4.97;;;2.77;;
18190;SDS011;47004;51.366;12.348;2023-01-08T04:56:38;5.73;;;3.20;;
18190;SDS011;47004;51.366;12.348;2023-01-08T04:58:40;3.93;;;2.93;;
18190;SDS011;47004;51.366;12.348;2023-01-08T05:00:42;4.97;;;3.13;;
18190;SDS011;47004;51.366;12.348;2023-01-08T05:02:44;3.93;;;2.60;;
18190;SDS011;47004;51.366;12.348;2023-01-08T05:04:46;4.10;;;3.00;;
18190;SDS011;47004;51.366;12.348;2023-01-08T05:06:50;3.50;;;2.63;;
18190;SDS011;47004;51.366;12.348;2023-01-08T05:08:52;3.93;;;2.80;;
18190;SDS011;47004;51.366;12.348;2023-01-08T05:10:57;5.63;;;2.83;;
18190;SDS011;47004;51.366;12.348;2023-01-08T05:13:00;3.43;;;2.60;;
18190;SDS011;47004;51.366;12.348;2023-01-08T05:15:02;6.80;;;2.97;;
18190;SDS011;47004;51.366;12.348;2023-01-08T05:17:05;6.13;;;2.90;;
18190;SDS011;47004;51.366;12.348;2023-01-08T05:19:07;4.83;;;2.60;;
18190;SDS011;47004;51.366;12.348;2023-01-08T05:21:08;6.80;;;2.90;;
18190;SDS011;47004;51.366;12.348;2023-01-08T05:23:11;5.87;;;3.20;;
18190;SDS011;47004;51.366;12.348;2023-01-08T05:25:13;5.43;;;3.00;;
18190;SDS011;47004;51.366;12.348;2023-01-08T05:27:15;4.23;;;2.53;;
18190;SDS011;47004;51.366;12.348;2023-01-08T05:29:18;4.33;;;2.60;;
18190;SDS011;47004;51.366;12.348;2023-01-08T05:31:20;5.37;;;3.07;;
18190;SDS011;47004;51.366;12.348;2023-01-08T05:33:22;4.20;;;2.70;;
18190;SDS011;47004;51.366;12.348;2023-01-08T05:35:24;5.80;;;2.80;;
18190;SDS011;47004;51.366;12.348;2023-01-08T05:37:26;3.57;;;2.40;;
18190;SDS011;47004;51.366;12.348;2023-01-08T05:39:28;3.80;;;2.50;;
18190;SDS011;47004;51.366;12.348;2023-01-08T05:41:30;5.57;;;2.50;;
18190;SDS011;47004;51.366;12.348;2023-01-08T05:43:31;4.73;;;2.40;;
18190;SDS011;47004;51.366;12.348;2023-01-08T05:45:35;3.37;;;2.53;;
18190;SDS011;47004;51.366;12.348;2023-01-08T05:47:37;3.60;;;2.40;;
18190;SDS011;47004;51.366;12.348;2023-01-08T05:49:39;3.63;;;2.23;;
18190;SDS011;47004;51.366;12.348;2023-01-08T05:51:41;3.50;;;2.37;;
18190;SDS011;47004;51.366;12.348;2023-01-08T05:53:42;5.93;;;2.90;;
18190;SDS011;47004;51.366;12.348;2023-01-08T05:55:44;5.00;;;2.47;;
18190;SDS011;47004;51.366;12.348;2023-01-08T05:57:46;4.87;;;2.50;;
18190;SDS011;47004;51.366;12.348;2023-01-08T05:59:49;3.87;;;2.70;;
18190;SDS011;47004;51.366;12.348;2023-01-08T06:01:52;3.90;;;2.27;;
18190;SDS011;47004;51.366;12.348;2023-01-08T06:03:54;3.70;;;2.40;;
18190;SDS011;47004;51.366;12.348;2023-01-08T06:05:58;3.73;;;2.37;;
18190;SDS011;47004;51.366;12.348;2023-01-08T06:08:00;3.90;;;2.60;;
18190;SDS011;47004;51.366;12.348;2023-01-08T06:10:02;4.90;;;2.80;;
18190;SDS011;47004;51.366;12.348;2023-01-08T06:12:05;4.97;;;2.57;;
18190;SDS011;47004;51.366;12.348;2023-01-08T06:14:07;3.57;;;2.50;;
18190;SDS011;47004;51.366;12.348;2023-01-08T06:16:09;3.90;;;2.70;;
18190;SDS011;47004;51.366;12.348;2023-01-08T06:18:13;4.00;;;2.60;;
18190;SDS011;47004;51.366;12.348;2023-01-08T06:20:15;4.00;;;2.90;;
18190;SDS011;47004;51.366;12.348;2023-01-08T06:22:17;3.93;;;2.73;;
18190;SDS011;47004;51.366;12.348;2023-01-08T06:24:19;4.13;;;2.73;;
18190;SDS011;47004;51.366;12.348;2023-01-08T06:26:21;4.17;;;2.80;;
18190;SDS011;47004;51.366;12.348;2023-01-08T06:28:23;4.70;;;3.00;;
18190;SDS011;47004;51.366;12.348;2023-01-08T06:30:25;4.40;;;2.90;;
18190;SDS011;47004;51.366;12.348;2023-01-08T06:32:27;4.77;;;3.03;;
18190;SDS011;47004;51.366;12.348;2023-01-08T06:34:30;4.97;;;2.80;;
18190;SDS011;47004;51.366;12.348;2023-01-08T06:36:32;5.57;;;2.93;;
18190;SDS011;47004;51.366;12.348;2023-01-08T06:38:34;4.30;;;2.80;;
18190;SDS011;47004;51.366;12.348;2023-01-08T06:40:37;5.93;;;3.13;;
18190;SDS011;47004;51.366;12.348;2023-01-08T06:42:39;5.40;;;3.00;;
18190;SDS011;47004;51.366;12.348;2023-01-08T06:44:42;3.70;;;2.80;;
18190;SDS011;47004;51.366;12.348;2023-01-08T06:46:44;4.13;;;2.70;;
18190;SDS011;47004;51.366;12.348;2023-01-08T06:48:46;5.50;;;3.47;;
18190;SDS011;47004;51.366;12.348;2023-01-08T06:50:49;4.60;;;2.50;;
18190;SDS011;47004;51.366;12.348;2023-01-08T06:52:52;4.73;;;2.90;;
18190;SDS011;47004;51.366;12.348;2023-01-08T06:54:54;5.20;;;2.97;;
18190;SDS011;47004;51.366;12.348;2023-01-08T06:56:56;4.87;;;2.90;;
18190;SDS011;47004;51.366;12.348;2023-01-08T06:58:58;4.50;;;2.97;;
18190;SDS011;47004;51.366;12.348;2023-01-08T07:01:00;4.43;;;2.87;;
18190;SDS011;47004;51.366;12.348;2023-01-08T07:03:02;4.60;;;2.93;;
18190;SDS011;47004;51.366;12.348;2023-01-08T07:05:04;4.73;;;3.00;;
18190;SDS011;47004;51.366;12.348;2023-01-08T07:07:08;4.47;;;3.17;;
18190;SDS011;47004;51.366;12.348;2023-01-08T07:09:12;6.13;;;3.57;;
18190;SDS011;47004;51.366;12.348;2023-01-08T07:11:15;5.13;;;3.10;;
18190;SDS011;47004;51.366;12.348;2023-01-08T07:13:17;4.70;;;2.93;;
18190;SDS011;47004;51.366;12.348;2023-01-08T07:15:20;6.53;;;3.50;;
18190;SDS011;47004;51.366;12.348;2023-01-08T07:17:22;8.80;;;3.20;;
18190;SDS011;47004;51.366;12.348;2023-01-08T07:19:23;4.60;;;3.03;;
18190;SDS011;47004;51.366;12.348;2023-01-08T07:21:25;6.43;;;3.30;;
18190;SDS011;47004;51.366;12.348;2023-01-08T07:23:29;5.93;;;3.07;;
18190;SDS011;47004;51.366;12.348;2023-01-08T07:25:30;4.43;;;3.03;;
18190;SDS011;47004;51.366;12.348;2023-01-08T07:27:33;4.27;;;2.83;;
18190;SDS011;47004;51.366;12.348;2023-01-08T07:29:34;5.60;;;3.03;;
18190;SDS011;47004;51.366;12.348;2023-01-08T07:31:36;5.90;;;3.40;;
18190;SDS011;47004;51.366;12.348;2023-01-08T07:33:38;8.03;;;3.53;;
18190;SDS011;47004;51.366;12.348;2023-01-08T07:35:40;7.90;;;4.13;;
18190;SDS011;47004;51.366;12.348;2023-01-08T07:37:42;5.60;;;3.57;;
18190;SDS011;47004;51.366;12.348;2023-01-08T07:39:46;4.93;;;3.10;;
18190;SDS011;47004;51.366;12.348;2023-01-08T07:41:47;4.97;;;3.00;;
18190;SDS011;47004;51.366;12.348;2023-01-08T07:43:49;4.63;;;2.83;;
18190;SDS011;47004;51.366;12.348;2023-01-08T07:45:51;5.27;;;3.20;;
18190;SDS011;47004;51.366;12.348;2023-01-08T07:47:55;5.83;;;3.50;;
18190;SDS011;47004;51.366;12.348;2023-01-08T07:49:58;4.10;;;2.90;;
18190;SDS011;47004;51.366;12.348;2023-01-08T07:52:00;8.27;;;3.20;;
18190;SDS011;47004;51.366;12.348;2023-01-08T07:54:01;5.40;;;3.23;;
18190;SDS011;47004;51.366;12.348;2023-01-08T07:56:06;5.77;;;3.47;;
18190;SDS011;47004;51.366;12.348;2023-01-08T07:58:10;6.57;;;3.30;;
18190;SDS011;47004;51.366;12.348;2023-01-08T08:00:13;6.40;;;3.43;;
18190;SDS011;47004;51.366;12.348;2023-01-08T08:02:15;4.83;;;2.90;;
18190;SDS011;47004;51.366;12.348;2023-01-08T08:04:17;5.57;;;3.63;;
18190;SDS011;47004;51.366;12.348;2023-01-08T08:06:19;5.80;;;2.93;;
18190;SDS011;47004;51.366;12.348;2023-01-08T08:08:21;5.23;;;2.97;;
18190;SDS011;47004;51.366;12.348;2023-01-08T08:10:23;5.20;;;3.00;;
18190;SDS011;47004;51.366;12.348;2023-01-08T08:12:27;6.83;;;3.50;;
18190;SDS011;47004;51.366;12.348;2023-01-08T08:14:28;5.30;;;3.37;;
18190;SDS011;47004;51.366;12.348;2023-01-08T08:16:30;5.43;;;3.13;;
18190;SDS011;47004;51.366;12.348;2023-01-08T08:18:32;5.80;;;3.30;;
18190;SDS011;47004;51.366;12.348;2023-01-08T08:20:34;4.57;;;2.90;;
18190;SDS011;47004;51.366;12.348;2023-01-08T08:22:36;5.20;;;3.13;;
18190;SDS011;47004;51.366;12.348;2023-01-08T08:24:38;5.70;;;2.80;;
18190;SDS011;47004;51.366;12.348;2023-01-08T08:26:40;4.90;;;3.17;;
18190;SDS011;47004;51.366;12.348;2023-01-08T08:28:44;4.30;;;2.80;;
18190;SDS011;47004;51.366;12.348;2023-01-08T08:30:45;5.07;;;2.97;;
18190;SDS011;47004;51.366;12.348;2023-01-08T08:32:47;5.73;;;3.33;;
18190;SDS011;47004;51.366;12.348;2023-01-08T08:34:49;4.77;;;3.03;;
18190;SDS011;47004;51.366;12.348;2023-01-08T08:36:51;6.27;;;3.37;;
18190;SDS011;47004;51.366;12.348;2023-01-08T08:38:53;7.77;;;4.10;;
18190;SDS011;47004;51.366;12.348;2023-01-08T08:40:55;6.23;;;3.20;;
18190;SDS011;47004;51.366;12.348;2023-01-08T08:42:57;3.90;;;3.07;;
18190;SDS011;47004;51.366;12.348;2023-01-08T08:45:02;6.10;;;3.20;;
18190;SDS011;47004;51.366;12.348;2023-01-08T08:47:05;4.53;;;2.93;;
18190;SDS011;47004;51.366;12.348;2023-01-08T08:49:08;8.60;;;3.97;;
18190;SDS011;47004;51.366;12.348;2023-01-08T08:51:10;6.93;;;3.40;;
18190;SDS011;47004;51.366;12.348;2023-01-08T08:53:12;6.90;;;3.40;;
18190;SDS011;47004;51.366;12.348;2023-01-08T08:55:14;5.67;;;3.47;;
18190;SDS011;47004;51.366;12.348;2023-01-08T08:57:17;7.13;;;3.40;;
18190;SDS011;47004;51.366;12.348;2023-01-08T08:59:18;6.70;;;3.37;;
18190;SDS011;47004;51.366;12.348;2023-01-08T09:01:22;4.83;;;3.00;;
18190;SDS011;47004;51.366;12.348;2023-01-08T09:03:24;7.47;;;3.33;;
18190;SDS011;47004;51.366;12.348;2023-01-08T09:05:25;8.23;;;3.80;;
18190;SDS011;47004;51.366;12.348;2023-01-08T09:07:27;5.07;;;3.33;;
18190;SDS011;47004;51.366;12.348;2023-01-08T09:09:29;5.80;;;3.33;;
18190;SDS011;47004;51.366;12.348;2023-01-08T09:11:31;5.13;;;3.33;;
18190;SDS011;47004;51.366;12.348;2023-01-08T09:13:34;5.60;;;3.47;;
18190;SDS011;47004;51.366;12.348;2023-01-08T09:15:37;6.90;;;3.47;;
18190;SDS011;47004;51.366;12.348;2023-01-08T09:17:40;6.83;;;3.67;;
18190;SDS011;47004;51.366;12.348;2023-01-08T09:19:42;7.93;;;4.00;;
18190;SDS011;47004;51.366;12.348;2023-01-08T09:21:44;6.40;;;3.57;;
18190;SDS011;47004;51.366;12.348;2023-01-08T09:23:47;5.93;;;3.50;;
18190;SDS011;47004;51.366;12.348;2023-01-08T09:25:49;5.30;;;3.30;;
18190;SDS011;47004;51.366;12.348;2023-01-08T09:27:58;6.20;;;3.43;;
18190;SDS011;47004;51.366;12.348;2023-01-08T09:30:04;6.57;;;3.50;;
18190;SDS011;47004;51.366;12.348;2023-01-08T09:32:07;5.47;;;3.67;;
18190;SDS011;47004;51.366;12.348;2023-01-08T09:34:10;8.60;;;3.90;;
18190;SDS011;47004;51.366;12.348;2023-01-08T09:36:12;6.67;;;3.87;;
18190;SDS011;47004;51.366;12.348;2023-01-08T09:38:14;7.30;;;3.83;;
18190;SDS011;47004;51.366;12.348;2023-01-08T09:40:17;6.97;;;4.17;;
18190;SDS011;47004;51.366;12.348;2023-01-08T09:42:20;6.53;;;3.83;;
18190;SDS011;47004;51.366;12.348;2023-01-08T09:44:27;9.13;;;4.07;;
18190;SDS011;47004;51.366;12.348;2023-01-08T09:46:33;8.27;;;3.87;;
18190;SDS011;47004;51.366;12.348;2023-01-08T09:48:37;5.93;;;4.00;;
18190;SDS011;47004;51.366;12.348;2023-01-08T09:50:41;5.57;;;3.50;;
18190;SDS011;47004;51.366;12.348;2023-01-08T09:52:43;6.33;;;3.90;;
18190;SDS011;47004;51.366;12.348;2023-01-08T09:54:46;5.53;;;3.70;;
18190;SDS011;47004;51.366;12.348;2023-01-08T09:56:47;7.10;;;3.50;;
18190;SDS011;47004;51.366;12.348;2023-01-08T09:58:50;7.73;;;3.63;;
18190;SDS011;47004;51.366;12.348;2023-01-08T10:00:53;7.40;;;3.90;;
18190;SDS011;47004;51.366;12.348;2023-01-08T10:02:56;7.40;;;3.80;;
18190;SDS011;47004;51.366;12.348;2023-01-08T10:05:01;6.10;;;3.53;;
18190;SDS011;47004;51.366;12.348;2023-01-08T10:07:10;6.10;;;3.70;;
18190;SDS011;47004;51.366;12.348;2023-01-08T10:09:18;5.27;;;3.40;;
18190;SDS011;47004;51.366;12.348;2023-01-08T10:11:24;7.60;;;4.00;;
18190;SDS011;47004;51.366;12.348;2023-01-08T10:13:29;6.93;;;3.63;;
18190;SDS011;47004;51.366;12.348;2023-01-08T10:15:31;7.23;;;3.90;;
18190;SDS011;47004;51.366;12.348;2023-01-08T10:17:35;10.87;;;4.33;;
18190;SDS011;47004;51.366;12.348;2023-01-08T10:19:38;7.27;;;3.50;;
18190;SDS011;47004;51.366;12.348;2023-01-08T10:21:40;6.97;;;3.50;;
18190;SDS011;47004;51.366;12.348;2023-01-08T10:23:50;6.73;;;3.97;;
18190;SDS011;47004;51.366;12.348;2023-01-08T10:25:54;6.97;;;3.97;;
18190;SDS011;47004;51.366;12.348;2023-01-08T10:27:58;5.43;;;3.37;;
18190;SDS011;47004;51.366;12.348;2023-01-08T10:30:03;5.83;;;3.70;;
18190;SDS011;47004;51.366;12.348;2023-01-08T10:32:07;6.00;;;3.77;;
18190;SDS011;47004;51.366;12.348;2023-01-08T10:34:23;6.50;;;3.50;;
18190;SDS011;47004;51.366;12.348;2023-01-08T10:36:27;6.53;;;3.43;;
18190;SDS011;47004;51.366;12.348;2023-01-08T10:38:30;6.30;;;4.10;;
18190;SDS011;47004;51.366;12.348;2023-01-08T10:40:40;8.57;;;3.87;;
18190;SDS011;47004;51.366;12.348;2023-01-08T10:43:05;7.00;;;3.73;;
18190;SDS011;47004;51.366;12.348;2023-01-08T10:45:15;8.40;;;3.83;;
18190;SDS011;47004;51.366;12.348;2023-01-08T10:47:20;6.30;;;3.67;;
18190;SDS011;47004;51.366;12.348;2023-01-08T10:49:28;7.27;;;4.13;;
18190;SDS011;47004;51.366;12.348;2023-01-08T10:51:32;6.23;;;4.07;;
18190;SDS011;47004;51.366;12.348;2023-01-08T10:53:34;6.20;;;3.97;;
18190;SDS011;47004;51.366;12.348;2023-01-08T10:55:39;7.83;;;4.20;;
18190;SDS011;47004;51.366;12.348;2023-01-08T10:57:51;8.93;;;4.70;;
18190;SDS011;47004;51.366;12.348;2023-01-08T10:59:55;7.20;;;4.37;;
18190;SDS011;47004;51.366;12.348;2023-01-08T11:01:59;6.33;;;3.87;;
18190;SDS011;47004;51.366;12.348;2023-01-08T11:04:02;7.47;;;3.70;;
18190;SDS011;47004;51.366;12.348;2023-01-08T11:06:12;5.73;;;3.90;;
18190;SDS011;47004;51.366;12.348;2023-01-08T11:08:20;6.73;;;4.10;;
18190;SDS011;47004;51.366;12.348;2023-01-08T11:10:24;5.70;;;3.77;;
18190;SDS011;47004;51.366;12.348;2023-01-08T11:12:31;6.57;;;4.00;;
18190;SDS011;47004;51.366;12.348;2023-01-08T11:14:35;7.10;;;3.90;;
18190;SDS011;47004;51.366;12.348;2023-01-08T11:16:39;8.10;;;4.43;;
18190;SDS011;47004;51.366;12.348;2023-01-08T11:18:42;10.43;;;4.70;;
18190;SDS011;47004;51.366;12.348;2023-01-08T11:20:48;6.13;;;3.97;;
18190;SDS011;47004;51.366;12.348;2023-01-08T11:22:51;8.17;;;4.63;;
18190;SDS011;47004;51.366;12.348;2023-01-08T11:25:04;8.50;;;4.40;;
18190;SDS011;47004;51.366;12.348;2023-01-08T11:27:14;8.33;;;4.57;;
18190;SDS011;47004;51.366;12.348;2023-01-08T11:29:21;7.60;;;4.20;;
18190;SDS011;47004;51.366;12.348;2023-01-08T11:31:32;9.97;;;4.80;;
18190;SDS011;47004;51.366;12.348;2023-01-08T11:33:41;7.70;;;4.53;;
18190;SDS011;47004;51.366;12.348;2023-01-08T11:35:48;7.20;;;4.03;;
18190;SDS011;47004;51.366;12.348;2023-01-08T11:37:55;6.53;;;4.30;;
18190;SDS011;47004;51.366;12.348;2023-01-08T11:39:59;7.87;;;4.77;;
18190;SDS011;47004;51.366;12.348;2023-01-08T11:42:11;8.77;;;5.17;;
18190;SDS011;47004;51.366;12.348;2023-01-08T11:44:26;8.40;;;5.23;;
18190;SDS011;47004;51.366;12.348;2023-01-08T11:46:38;7.10;;;4.67;;
18190;SDS011;47004;51.366;12.348;2023-01-08T11:48:57;7.00;;;4.87;;
18190;SDS011;47004;51.366;12.348;2023-01-08T11:51:23;9.10;;;5.10;;
18190;SDS011;47004;51.366;12.348;2023-01-08T11:53:51;7.83;;;4.63;;
18190;SDS011;47004;51.366;12.348;2023-01-08T11:56:06;9.20;;;5.23;;
18190;SDS011;47004;51.366;12.348;2023-01-08T11:58:27;9.47;;;4.77;;
18190;SDS011;47004;51.366;12.348;2023-01-08T12:00:48;8.67;;;4.83;;
18190;SDS011;47004;51.366;12.348;2023-01-08T12:02:59;9.20;;;5.10;;
18190;SDS011;47004;51.366;12.348;2023-01-08T12:05:10;8.43;;;5.07;;
18190;SDS011;47004;51.366;12.348;2023-01-08T12:07:25;7.93;;;4.90;;
18190;SDS011;47004;51.366;12.348;2023-01-08T12:09:37;9.10;;;5.23;;
18190;SDS011;47004;51.366;12.348;2023-01-08T12:11:43;9.23;;;5.47;;
18190;SDS011;47004;51.366;12.348;2023-01-08T12:13:54;7.27;;;4.70;;
18190;SDS011;47004;51.366;12.348;2023-01-08T12:16:21;8.13;;;4.50;;
18190;SDS011;47004;51.366;12.348;2023-01-08T12:18:44;6.33;;;4.20;;